createdAt,value
2023-04-18T00:00:59.101Z,6.85
2023-04-18T00:03:31.419Z,6.63
2023-04-18T00:06:01.296Z,6.88
2023-04-18T00:08:36.625Z,6.72
2023-04-18T00:11:10.266Z,8.43
2023-04-18T00:13:41.880Z,8.45
2023-04-18T00:16:11.290Z,7.40
2023-04-18T00:18:42.717Z,8.13
2023-04-18T00:21:11.673Z,6.60
2023-04-18T00:23:42.655Z,6.53
2023-04-18T00:26:13.839Z,6.15
2023-04-18T00:28:45.936Z,7.05
2023-04-18T00:31:14.913Z,6.07
2023-04-18T00:33:46.679Z,5.65
2023-04-18T00:36:22.006Z,5.40
2023-04-18T00:38:53.061Z,6.85
2023-04-18T00:41:25.925Z,6.32
2023-04-18T00:43:57.759Z,5.85
2023-04-18T00:46:28.868Z,6.82
2023-04-18T00:49:01.086Z,7.05
2023-04-18T00:51:30.365Z,5.95
2023-04-18T00:54:05.500Z,5.55
2023-04-18T00:56:36.682Z,5.32
2023-04-18T00:59:07.940Z,5.18
2023-04-18T01:01:36.466Z,5.60
2023-04-18T01:04:17.340Z,6.15
2023-04-18T01:06:48.919Z,5.18
2023-04-18T01:09:17.967Z,5.07
2023-04-18T01:11:49.863Z,5.68
2023-04-18T01:14:22.479Z,5.72
2023-04-18T01:17:01.321Z,5.82
2023-04-18T01:19:34.483Z,4.68
2023-04-18T01:22:03.293Z,5.20
2023-04-18T01:24:32.478Z,5.43
2023-04-18T01:27:03.698Z,5.07
2023-04-18T01:29:42.548Z,4.90
2023-04-18T01:32:14.304Z,4.88
2023-04-18T01:34:43.341Z,4.95
2023-04-18T01:37:12.659Z,4.93
2023-04-18T01:39:44.507Z,4.40
2023-04-18T01:42:16.252Z,4.45
2023-04-18T01:44:46.003Z,4.93
2023-04-18T01:47:17.362Z,5.20
2023-04-18T01:49:48.621Z,5.30
2023-04-18T01:52:18.350Z,4.93
2023-04-18T01:54:50.092Z,5.20
2023-04-18T01:57:25.868Z,5.25
2023-04-18T01:59:57.471Z,5.85
2023-04-18T02:02:29.739Z,6.10
2023-04-18T02:05:02.972Z,5.50
2023-04-18T02:07:36.740Z,5.40
2023-04-18T02:10:06.425Z,5.57
2023-04-18T02:12:35.509Z,5.25
2023-04-18T02:15:08.108Z,4.82
2023-04-18T02:17:38.402Z,5.07
2023-04-18T02:20:08.844Z,5.38
2023-04-18T02:22:41.205Z,5.50
2023-04-18T02:25:15.972Z,5.60
2023-04-18T02:27:47.613Z,5.80
2023-04-18T02:30:25.534Z,5.90
2023-04-18T02:32:57.539Z,5.68
2023-04-18T02:35:28.746Z,5.30
2023-04-18T02:37:59.606Z,5.05
2023-04-18T02:40:31.668Z,5.65
2023-04-18T02:43:03.052Z,4.97
2023-04-18T02:45:34.627Z,5.32
2023-04-18T02:48:09.613Z,5.10
2023-04-18T02:50:43.198Z,5.28
2023-04-18T02:53:12.217Z,4.80
2023-04-18T02:56:01.961Z,5.05
2023-04-18T02:58:53.377Z,4.53
2023-04-18T03:01:53.299Z,5.20
2023-04-18T03:04:24.972Z,4.78
2023-04-18T03:07:01.176Z,5.35
2023-04-18T03:09:37.765Z,5.38
2023-04-18T03:12:18.130Z,5.60
2023-04-18T03:14:48.005Z,5.50
2023-04-18T03:17:19.727Z,5.18
2023-04-18T03:19:51.177Z,4.78
2023-04-18T03:22:22.260Z,5.03
2023-04-18T03:25:00.492Z,4.47
2023-04-18T03:27:49.194Z,5.90
2023-04-18T03:30:21.164Z,4.82
2023-04-18T03:33:03.222Z,5.10
2023-04-18T03:35:33.017Z,4.60
2023-04-18T03:38:02.265Z,4.88
2023-04-18T03:43:13.716Z,5.10
2023-04-18T03:45:50.651Z,4.80
2023-04-18T03:48:23.642Z,5.40
2023-04-18T03:50:55.035Z,5.85
2023-04-18T03:53:28.585Z,6.13
2023-04-18T03:55:58.082Z,5.30
2023-04-18T03:58:43.314Z,5.38
2023-04-18T04:01:14.650Z,5.25
2023-04-18T04:03:50.162Z,5.10
2023-04-18T04:06:19.398Z,5.57
2023-04-18T04:08:53.794Z,5.60
2023-04-18T04:11:34.320Z,5.80
2023-04-18T04:14:10.853Z,5.55
2023-04-18T04:16:45.256Z,5.47
2023-04-18T04:19:17.605Z,5.38
2023-04-18T04:21:59.352Z,5.07
2023-04-18T04:24:29.754Z,6.40
2023-04-18T04:27:04.195Z,6.45
2023-04-18T04:29:39.289Z,5.55
2023-04-18T04:32:13.527Z,5.65
2023-04-18T04:34:46.825Z,4.65
2023-04-18T04:37:15.864Z,5.28
2023-04-18T04:40:04.979Z,5.80
2023-04-18T04:43:01.973Z,6.03
2023-04-18T04:45:39.613Z,5.43
2023-04-18T04:48:09.707Z,5.60
2023-04-18T04:50:42.799Z,4.85
2023-04-18T04:53:19.416Z,5.50
2023-04-18T04:55:58.405Z,5.80
2023-04-18T04:58:30.295Z,5.05
2023-04-18T05:01:12.816Z,6.22
2023-04-18T05:03:46.868Z,5.63
2023-04-18T05:06:21.212Z,5.25
2023-04-18T05:08:55.374Z,6.28
2023-04-18T05:11:31.921Z,5.82
2023-04-18T05:14:01.102Z,5.93
2023-04-18T05:16:34.005Z,5.82
2023-04-18T05:19:04.386Z,5.93
2023-04-18T05:21:35.011Z,6.43
2023-04-18T05:24:10.616Z,5.65
2023-04-18T05:26:43.691Z,5.78
2023-04-18T05:29:17.787Z,5.28
2023-04-18T05:31:46.852Z,5.88
2023-04-18T05:34:17.307Z,5.68
2023-04-18T05:36:47.705Z,7.00
2023-04-18T05:39:17.664Z,6.97
2023-04-18T05:41:46.609Z,6.70
2023-04-18T05:44:18.566Z,6.47
2023-04-18T05:46:53.812Z,7.57
2023-04-18T05:49:30.365Z,7.35
2023-04-18T05:52:02.121Z,7.47
2023-04-18T05:54:33.035Z,7.18
2023-04-18T05:57:04.791Z,7.45
2023-04-18T05:59:38.667Z,7.70
2023-04-18T06:02:13.640Z,7.68
2023-04-18T06:04:44.778Z,7.72
2023-04-18T06:07:13.976Z,7.85
2023-04-18T06:09:46.237Z,8.50
2023-04-18T06:12:19.921Z,9.27
2023-04-18T06:14:50.154Z,8.80
2023-04-18T06:17:24.843Z,9.88
2023-04-18T06:19:56.097Z,8.50
2023-04-18T06:22:27.271Z,6.03
2023-04-18T06:24:58.655Z,6.43
2023-04-18T06:27:32.421Z,6.18
2023-04-18T06:30:04.239Z,6.30
2023-04-18T06:32:37.974Z,5.88
2023-04-18T06:35:07.443Z,6.60
2023-04-18T06:37:39.048Z,5.90
2023-04-18T06:40:09.109Z,6.95
2023-04-18T06:42:38.514Z,6.13
2023-04-18T06:45:08.080Z,6.90
2023-04-18T06:47:39.667Z,9.00
2023-04-18T06:50:09.873Z,8.35
2023-04-18T06:52:41.154Z,7.70
2023-04-18T06:55:11.596Z,6.60
2023-04-18T06:57:44.255Z,6.95
2023-04-18T07:00:18.640Z,6.93
2023-04-18T07:02:49.979Z,5.85
2023-04-18T07:05:24.238Z,5.57
2023-04-18T07:07:56.326Z,5.00
2023-04-18T07:10:31.086Z,5.65
2023-04-18T07:13:05.183Z,4.93
2023-04-18T07:15:36.295Z,4.75
2023-04-18T07:18:05.416Z,4.88
2023-04-18T07:20:35.233Z,4.28
2023-04-18T07:23:04.247Z,5.18
2023-04-18T07:25:33.750Z,5.03
2023-04-18T07:28:08.359Z,4.55
2023-04-18T07:30:40.054Z,5.28
2023-04-18T07:33:09.448Z,4.85
2023-04-18T07:35:38.378Z,4.70
2023-04-18T07:38:12.210Z,5.15
2023-04-18T07:40:40.981Z,5.50
2023-04-18T07:43:09.965Z,5.85
2023-04-18T07:45:46.269Z,7.07
2023-04-18T07:48:15.790Z,5.72
2023-04-18T07:50:44.666Z,5.50
2023-04-18T07:53:13.340Z,6.38
2023-04-18T07:55:43.731Z,6.07
2023-04-18T07:58:17.892Z,6.38
2023-04-18T08:00:47.554Z,5.28
2023-04-18T08:03:19.384Z,6.25
2023-04-18T08:05:49.560Z,4.88
2023-04-18T08:08:21.359Z,5.25
2023-04-18T08:10:51.317Z,4.88
2023-04-18T08:13:20.421Z,5.55
2023-04-18T08:15:52.766Z,5.40
2023-04-18T08:18:23.984Z,5.20
2023-04-18T08:20:53.251Z,5.20
2023-04-18T08:23:24.644Z,5.28
2023-04-18T08:25:56.245Z,4.53
2023-04-18T08:28:27.706Z,4.18
2023-04-18T08:30:59.758Z,5.03
2023-04-18T08:33:31.921Z,4.47
2023-04-18T08:36:03.134Z,4.50
2023-04-18T08:38:33.710Z,5.32
2023-04-18T08:41:05.573Z,4.55
2023-04-18T08:43:38.771Z,4.60
2023-04-18T08:46:10.662Z,5.13
2023-04-18T08:48:45.073Z,5.18
2023-04-18T08:51:14.508Z,5.20
2023-04-18T08:53:46.515Z,4.88
2023-04-18T08:56:16.849Z,4.80
2023-04-18T08:58:47.277Z,4.63
2023-04-18T09:01:21.967Z,5.03
2023-04-18T09:03:53.635Z,5.20
2023-04-18T09:06:27.814Z,4.53
2023-04-18T09:09:02.221Z,5.18
2023-04-18T09:11:33.012Z,5.43
2023-04-18T09:14:02.816Z,4.95
2023-04-18T09:16:47.390Z,4.85
2023-04-18T09:19:19.376Z,5.35
2023-04-18T09:21:59.723Z,5.22
2023-04-18T09:24:29.743Z,3.67
2023-04-18T09:27:12.992Z,4.35
2023-04-18T09:29:52.498Z,5.13
2023-04-18T09:32:29.774Z,4.50
2023-04-18T09:35:26.474Z,5.03
2023-04-18T09:37:56.427Z,4.78
2023-04-18T09:40:25.597Z,5.13
2023-04-18T09:42:57.952Z,4.82
2023-04-18T09:45:30.854Z,5.60
2023-04-18T09:48:02.553Z,5.00
2023-04-18T09:50:33.750Z,5.22
2023-04-18T09:53:09.438Z,5.20
2023-04-18T09:55:42.846Z,6.22
2023-04-18T09:58:18.330Z,6.05
2023-04-18T10:00:53.376Z,6.65
2023-04-18T10:03:29.428Z,6.90
2023-04-18T10:06:03.865Z,6.70
2023-04-18T10:08:35.576Z,5.85
2023-04-18T10:11:10.266Z,6.20
2023-04-18T10:13:48.346Z,6.00
2023-04-18T10:16:23.085Z,6.55
2023-04-18T10:18:52.477Z,6.85
2023-04-18T10:21:22.632Z,6.10
2023-04-18T10:23:51.921Z,7.00
2023-04-18T10:26:21.503Z,6.43
2023-04-18T10:28:57.907Z,6.03
2023-04-18T10:31:28.817Z,5.78
2023-04-18T10:34:05.631Z,6.43
2023-04-18T10:36:35.368Z,6.97
2023-04-18T10:39:28.877Z,6.13
2023-04-18T10:41:57.931Z,6.43
2023-04-18T10:44:30.420Z,6.25
2023-04-18T10:47:02.297Z,6.03
2023-04-18T10:49:34.277Z,6.15
2023-04-18T10:52:09.199Z,6.32
2023-04-18T10:54:59.190Z,6.20
2023-04-18T10:57:40.909Z,6.93
2023-04-18T11:00:14.931Z,6.80
2023-04-18T11:02:58.463Z,6.25
2023-04-18T11:05:30.270Z,6.95
2023-04-18T11:07:59.397Z,6.68
2023-04-18T11:10:31.555Z,7.18
2023-04-18T11:13:07.028Z,7.75
2023-04-18T11:15:40.284Z,6.72
2023-04-18T11:18:10.859Z,7.57
2023-04-18T11:20:46.744Z,6.85
2023-04-18T11:23:26.121Z,7.35
2023-04-18T11:25:57.095Z,6.43
2023-04-18T11:28:29.011Z,6.45
2023-04-18T11:31:04.267Z,6.85
2023-04-18T11:33:35.638Z,7.07
2023-04-18T11:36:06.092Z,7.05
2023-04-18T11:38:36.800Z,7.93
2023-04-18T11:41:06.134Z,7.00
2023-04-18T11:43:40.052Z,7.07
2023-04-18T11:46:09.276Z,7.43
2023-04-18T11:48:48.226Z,6.82
2023-04-18T11:51:44.080Z,6.05
2023-04-18T11:54:46.559Z,5.70
2023-04-18T11:57:28.295Z,4.78
2023-04-18T12:00:01.679Z,4.57
2023-04-18T12:02:46.755Z,4.35
2023-04-18T12:05:37.007Z,4.35
2023-04-18T12:08:18.615Z,4.30
2023-04-18T12:10:48.403Z,4.70
2023-04-18T12:13:25.329Z,3.58
2023-04-18T12:15:57.193Z,3.58
2023-04-18T12:18:26.261Z,3.67
2023-04-18T12:20:55.771Z,4.03
2023-04-18T12:23:40.595Z,3.20
2023-04-18T12:26:23.373Z,3.63
2023-04-18T12:28:54.243Z,3.08
2023-04-18T12:31:25.507Z,2.78
2023-04-18T12:33:55.008Z,3.42
2023-04-18T12:36:28.870Z,2.53
2023-04-18T12:39:01.023Z,3.47
2023-04-18T12:41:32.912Z,3.70
2023-04-18T12:44:05.094Z,3.10
2023-04-18T12:46:36.841Z,3.63
2023-04-18T12:49:09.205Z,3.47
2023-04-18T12:51:40.515Z,4.20
2023-04-18T12:54:09.813Z,5.10
2023-04-18T12:56:41.167Z,4.40
2023-04-18T12:59:10.550Z,5.18
2023-04-18T13:01:44.598Z,5.38
2023-04-18T13:04:16.251Z,4.88
2023-04-18T13:06:45.523Z,4.40
2023-04-18T13:09:18.260Z,4.82
2023-04-18T13:11:49.518Z,3.92
2023-04-18T13:14:18.928Z,3.63
2023-04-18T13:16:49.350Z,3.58
2023-04-18T13:19:18.694Z,4.03
2023-04-18T13:21:53.794Z,4.90
2023-04-18T13:24:23.649Z,4.28
2023-04-18T13:26:56.559Z,3.25
2023-04-18T13:29:31.262Z,2.90
2023-04-18T13:32:00.451Z,3.40
2023-04-18T13:34:32.107Z,2.88
2023-04-18T13:37:04.018Z,2.78
2023-04-18T13:39:34.776Z,2.58
2023-04-18T13:42:04.885Z,2.45
2023-04-18T13:44:36.320Z,2.67
2023-04-18T13:47:06.748Z,2.85
2023-04-18T13:49:37.196Z,2.45
2023-04-18T13:52:10.931Z,2.40
2023-04-18T13:54:44.852Z,2.67
2023-04-18T13:57:15.047Z,2.88
2023-04-18T13:59:44.661Z,2.50
2023-04-18T14:02:17.546Z,2.50
2023-04-18T14:04:46.969Z,2.85
2023-04-18T14:07:16.087Z,2.65
2023-04-18T14:09:45.071Z,2.72
2023-04-18T14:12:14.739Z,2.55
2023-04-18T14:14:44.604Z,2.65
2023-04-18T14:17:16.521Z,2.60
2023-04-18T14:19:45.547Z,2.72
2023-04-18T14:22:14.773Z,2.25
2023-04-18T14:24:44.729Z,1.98
2023-04-18T14:27:13.944Z,2.00
2023-04-18T14:29:42.996Z,2.60
2023-04-18T14:32:14.584Z,2.85
2023-04-18T14:34:46.149Z,2.60
2023-04-18T14:37:17.844Z,2.40
2023-04-18T14:42:19.811Z,2.35
2023-04-18T14:44:48.782Z,2.67
2023-04-18T14:47:31.276Z,2.53
2023-04-18T14:50:03.116Z,2.83
2023-04-18T14:52:42.977Z,2.90
2023-04-18T14:55:20.177Z,2.80
2023-04-18T14:57:49.790Z,3.17
2023-04-18T15:00:19.741Z,2.58
2023-04-18T15:02:56.972Z,2.45
2023-04-18T15:05:26.814Z,2.50
2023-04-18T15:07:58.605Z,2.72
2023-04-18T15:12:59.270Z,2.75
2023-04-18T15:15:38.497Z,2.63
2023-04-18T15:18:08.746Z,2.17
2023-04-18T15:20:38.101Z,5.93
2023-04-18T15:23:14.249Z,3.00
2023-04-18T15:25:45.115Z,3.42
2023-04-18T15:28:16.567Z,3.00
2023-04-18T15:30:51.018Z,2.83
2023-04-18T15:33:25.571Z,3.53
2023-04-18T15:35:58.424Z,3.08
2023-04-18T15:38:27.925Z,3.28
2023-04-18T15:41:03.351Z,3.75
2023-04-18T15:43:35.405Z,3.38
2023-04-18T15:46:05.261Z,3.75
2023-04-18T15:48:37.778Z,3.92
2023-04-18T15:51:07.360Z,3.65
2023-04-18T15:53:40.791Z,3.47
2023-04-18T15:56:14.603Z,4.07
2023-04-18T15:58:48.563Z,3.90
2023-04-18T16:01:23.377Z,4.13
2023-04-18T16:03:57.685Z,4.00
2023-04-18T16:06:30.094Z,4.40
2023-04-18T16:11:33.379Z,4.05
2023-04-18T16:14:03.339Z,5.03
2023-04-18T16:16:34.809Z,4.68
2023-04-18T16:19:04.934Z,4.88
2023-04-18T16:21:34.004Z,6.15
2023-04-18T16:24:07.989Z,6.35
2023-04-18T16:26:39.289Z,7.55
2023-04-18T16:29:14.831Z,7.45
2023-04-18T16:31:52.082Z,7.10
2023-04-18T16:34:24.693Z,6.65
2023-04-18T16:36:56.153Z,6.60
2023-04-18T16:39:30.118Z,4.97
2023-04-18T16:41:59.142Z,6.35
2023-04-18T16:44:36.112Z,5.65
2023-04-18T16:47:07.611Z,5.85
2023-04-18T16:49:38.084Z,6.20
2023-04-18T16:52:07.713Z,6.15
2023-04-18T16:54:37.777Z,6.25
2023-04-18T16:57:11.847Z,5.35
2023-04-18T16:59:47.763Z,5.82
2023-04-18T17:02:17.348Z,6.28
2023-04-18T17:04:47.801Z,5.88
2023-04-18T17:07:20.225Z,5.53
2023-04-18T17:09:50.102Z,6.22
2023-04-18T17:12:19.339Z,6.38
2023-04-18T17:14:48.756Z,5.68
2023-04-18T17:17:21.314Z,5.78
2023-04-18T17:19:53.144Z,5.43
2023-04-18T17:22:24.236Z,5.68
2023-04-18T17:24:53.798Z,5.50
2023-04-18T17:27:29.528Z,9.73
2023-04-18T17:30:03.142Z,6.22
2023-04-18T17:32:42.624Z,5.03
2023-04-18T17:35:16.843Z,5.28
2023-04-18T17:37:50.653Z,6.20
2023-04-18T17:40:22.818Z,5.93
2023-04-18T17:42:54.423Z,5.82
2023-04-18T17:45:27.124Z,5.60
2023-04-18T17:47:59.926Z,5.82
2023-04-18T17:50:31.961Z,5.53
2023-04-18T17:53:06.399Z,5.38
2023-04-18T17:55:36.143Z,5.45
2023-04-18T17:58:08.148Z,5.65
2023-04-18T18:00:37.113Z,4.72
2023-04-18T18:03:14.029Z,5.63
2023-04-18T18:05:52.273Z,5.55
2023-04-18T18:08:24.899Z,5.95
2023-04-18T18:10:55.708Z,5.32
2023-04-18T18:13:26.418Z,5.35
2023-04-18T18:15:59.754Z,5.93
2023-04-18T18:18:32.878Z,5.18
2023-04-18T18:21:05.490Z,5.32
2023-04-18T18:23:34.927Z,4.65
2023-04-18T18:26:07.057Z,6.75
2023-04-18T18:28:39.264Z,9.60
2023-04-18T18:31:13.304Z,5.72
2023-04-18T18:33:45.249Z,6.22
2023-04-18T18:36:18.864Z,5.35
2023-04-18T18:38:48.585Z,5.43
2023-04-18T18:41:17.750Z,5.40
2023-04-18T18:43:51.265Z,5.85
2023-04-18T18:46:25.744Z,6.15
2023-04-18T18:49:00.484Z,6.72
2023-04-18T18:51:33.232Z,6.65
2023-04-18T18:54:02.348Z,6.13
2023-04-18T18:56:31.621Z,7.07
2023-04-18T18:59:03.568Z,7.40
2023-04-18T19:01:35.249Z,8.57
2023-04-18T19:04:05.388Z,9.93
2023-04-18T19:06:44.030Z,9.38
2023-04-18T19:09:14.205Z,7.72
2023-04-18T19:11:43.720Z,7.88
2023-04-18T19:14:15.632Z,10.38
2023-04-18T19:16:49.267Z,9.73
2023-04-18T19:19:19.084Z,10.55
2023-04-18T19:21:55.977Z,10.07
2023-04-18T19:24:25.404Z,9.23
2023-04-18T19:26:55.920Z,12.27
2023-04-18T19:29:25.085Z,10.70
2023-04-18T19:31:57.223Z,12.07
2023-04-18T19:34:29.518Z,10.18
2023-04-18T19:37:04.266Z,10.25
2023-04-18T19:39:37.161Z,9.57
2023-04-18T19:42:06.788Z,11.45
2023-04-18T19:44:43.480Z,11.07
2023-04-18T19:47:12.880Z,13.10
2023-04-18T19:49:45.140Z,13.43
2023-04-18T19:52:18.898Z,13.00
2023-04-18T19:54:48.823Z,13.40
2023-04-18T19:57:20.434Z,13.57
2023-04-18T19:59:52.021Z,15.43
2023-04-18T20:02:24.630Z,12.10
2023-04-18T20:07:26.389Z,11.93
2023-04-18T20:09:57.988Z,11.55
2023-04-18T20:12:30.025Z,12.60
2023-04-18T20:15:02.240Z,12.80
2023-04-18T20:17:38.444Z,11.55
2023-04-18T20:20:12.174Z,10.88
2023-04-18T20:22:45.349Z,10.48
2023-04-18T20:25:17.829Z,10.05
2023-04-18T20:30:22.626Z,10.05
2023-04-18T20:32:55.423Z,10.60
2023-04-18T20:35:28.473Z,9.93
2023-04-18T20:38:02.792Z,10.02
2023-04-18T20:40:34.453Z,12.55
2023-04-18T20:43:03.828Z,11.82
2023-04-18T20:45:35.935Z,11.93
2023-04-18T20:48:08.100Z,11.52
2023-04-18T20:50:44.453Z,10.32
2023-04-18T20:53:18.105Z,8.38
2023-04-18T20:55:48.291Z,9.43
2023-04-18T20:58:19.970Z,9.07
2023-04-18T21:00:55.976Z,9.45
2023-04-18T21:03:27.987Z,10.30
2023-04-18T21:06:03.279Z,10.32
2023-04-18T21:08:40.113Z,10.77
2023-04-18T21:11:09.479Z,9.82
2023-04-18T21:13:38.569Z,9.15
2023-04-18T21:16:11.199Z,9.32
2023-04-18T21:18:45.921Z,8.15
2023-04-18T21:21:17.354Z,7.53
2023-04-18T21:23:46.799Z,8.10
2023-04-18T21:26:19.398Z,8.10
2023-04-18T21:28:59.595Z,7.18
2023-04-18T21:31:31.627Z,6.93
2023-04-18T21:34:03.755Z,7.53
2023-04-18T21:36:35.759Z,8.55
2023-04-18T21:39:05.222Z,8.55
2023-04-18T21:41:34.158Z,7.78
2023-04-18T21:44:06.595Z,7.55
2023-04-18T21:46:36.891Z,6.63
2023-04-18T21:49:06.679Z,6.63
2023-04-18T21:51:36.541Z,7.18
2023-04-18T21:54:13.378Z,8.25
2023-04-18T21:56:45.610Z,8.82
2023-04-18T21:59:14.565Z,8.07
2023-04-18T22:01:46.715Z,7.80
2023-04-18T22:04:21.509Z,6.13
2023-04-18T22:06:55.958Z,7.00
2023-04-18T22:09:30.202Z,6.32
2023-04-18T22:12:03.889Z,6.22
2023-04-18T22:14:35.852Z,7.20
2023-04-18T22:17:05.204Z,6.55
2023-04-18T22:19:36.153Z,6.45
2023-04-18T22:22:06.291Z,5.55
2023-04-18T22:24:38.491Z,5.43
2023-04-18T22:27:11.871Z,5.40
2023-04-18T22:29:41.381Z,5.65
2023-04-18T22:32:16.034Z,5.60
2023-04-18T22:34:48.231Z,5.03
2023-04-18T22:37:17.419Z,4.28
2023-04-18T22:39:47.340Z,4.53
2023-04-18T22:42:22.075Z,4.57
2023-04-18T22:44:54.341Z,4.70
2023-04-18T22:47:23.361Z,5.05
2023-04-18T22:49:52.367Z,5.43
2023-04-18T22:52:25.862Z,5.15
2023-04-18T22:54:55.185Z,4.50
2023-04-18T22:57:24.227Z,5.70
2023-04-18T22:59:55.870Z,4.63
2023-04-18T23:02:25.273Z,4.35
2023-04-18T23:04:54.343Z,3.85
2023-04-18T23:07:23.834Z,4.03
2023-04-18T23:09:53.637Z,4.72
2023-04-18T23:12:27.233Z,4.15
2023-04-18T23:15:01.815Z,4.32
2023-04-18T23:17:35.402Z,4.60
2023-04-18T23:20:09.367Z,4.78
2023-04-18T23:22:39.619Z,4.45
2023-04-18T23:25:12.180Z,4.00
2023-04-18T23:27:41.070Z,4.18
2023-04-18T23:30:13.645Z,4.15
2023-04-18T23:32:44.931Z,4.47
2023-04-18T23:35:16.626Z,6.63
2023-04-18T23:37:46.333Z,6.93
2023-04-18T23:40:18.438Z,7.22
2023-04-18T23:42:54.890Z,7.88
2023-04-18T23:45:29.283Z,6.97
2023-04-18T23:47:58.512Z,8.90
2023-04-18T23:50:33.848Z,7.97
2023-04-18T23:53:03.303Z,7.68
2023-04-18T23:55:37.475Z,7.45
2023-04-18T23:58:09.328Z,8.43
